createdAt,value
2022-08-27T00:00:16.110Z,101689.69
2022-08-27T00:02:43.839Z,101682.25
2022-08-27T00:05:12.828Z,101687.75
2022-08-27T00:07:40.540Z,101683.25
2022-08-27T00:10:09.152Z,101691.44
2022-08-27T00:12:36.663Z,101684.53
2022-08-27T00:15:06.000Z,101681.88
2022-08-27T00:17:33.423Z,101685.09
2022-08-27T00:19:59.817Z,101684.63
2022-08-27T00:22:26.346Z,101678.22
2022-08-27T00:24:52.728Z,101679.75
2022-08-27T00:27:19.205Z,101677.72
2022-08-27T00:29:47.455Z,101674.25
2022-08-27T00:32:14.159Z,101679.84
2022-08-27T00:34:40.731Z,101678.38
2022-08-27T00:37:07.166Z,101669.94
2022-08-27T00:39:36.801Z,101668.31
2022-08-27T00:42:05.444Z,101666.63
2022-08-27T00:44:32.386Z,101671.13
2022-08-27T00:47:05.370Z,101677.09
2022-08-27T00:49:40.882Z,101673.22
2022-08-27T00:52:22.047Z,101671.22
2022-08-27T00:54:51.631Z,101669.22
2022-08-27T00:57:18.388Z,101669.84
2022-08-27T00:59:45.441Z,101668.94
2022-08-27T01:02:21.427Z,101677.78
2022-08-27T01:04:53.743Z,101670.63
2022-08-27T01:07:22.084Z,101670.97
2022-08-27T01:09:50.086Z,101674.72
2022-08-27T01:12:16.871Z,101673.09
2022-08-27T01:14:44.795Z,101669.41
2022-08-27T01:17:13.263Z,101680.03
2022-08-27T01:19:49.202Z,101677.56
2022-08-27T01:22:28.626Z,101677.94
2022-08-27T01:24:58.331Z,101674.34
2022-08-27T01:27:27.661Z,101680.13
2022-08-27T01:29:54.339Z,101674.19
2022-08-27T01:32:25.871Z,101673.81
2022-08-27T01:34:53.772Z,101673.81
2022-08-27T01:37:24.000Z,101665.16
2022-08-27T01:39:51.698Z,101667.94
2022-08-27T01:42:22.916Z,101667.13
2022-08-27T01:44:56.423Z,101668.78
2022-08-27T01:47:30.531Z,101667.94
2022-08-27T01:49:58.076Z,101663.19
2022-08-27T01:52:27.404Z,101674.25
2022-08-27T01:54:54.268Z,101664.34
2022-08-27T01:57:25.358Z,101663.38
2022-08-27T01:59:52.514Z,101661.53
2022-08-27T02:02:19.823Z,101667.31
2022-08-27T02:04:46.261Z,101663.63
2022-08-27T02:07:13.109Z,101665.47
2022-08-27T02:09:39.621Z,101667.13
2022-08-27T02:12:06.573Z,101671.25
2022-08-27T02:14:32.991Z,101665.13
2022-08-27T02:16:59.480Z,101664.09
2022-08-27T02:19:26.843Z,101655.59
2022-08-27T02:21:53.630Z,101649.41
2022-08-27T02:24:20.040Z,101657.41
2022-08-27T02:26:46.481Z,101646.50
2022-08-27T02:29:12.945Z,101654.56
2022-08-27T02:31:41.228Z,101649.06
2022-08-27T02:34:08.116Z,101651.09
2022-08-27T02:36:37.133Z,101651.44
2022-08-27T02:39:07.034Z,101645.75
2022-08-27T02:41:33.496Z,101649.41
2022-08-27T02:44:01.138Z,101648.59
2022-08-27T02:46:28.885Z,101654.09
2022-08-27T02:48:55.323Z,101650.78
2022-08-27T02:51:21.733Z,101648.88
2022-08-27T02:53:48.419Z,101650.06
2022-08-27T02:56:15.089Z,101650.59
2022-08-27T02:58:48.101Z,101645.38
2022-08-27T03:01:15.569Z,101636.75
2022-08-27T03:03:42.020Z,101648.56
2022-08-27T03:06:08.644Z,101654.53
2022-08-27T03:08:50.729Z,101648.13
2022-08-27T03:11:23.520Z,101646.66
2022-08-27T03:13:50.550Z,101640.47
2022-08-27T03:16:17.204Z,101641.19
2022-08-27T03:18:43.734Z,101629.09
2022-08-27T03:21:16.990Z,101634.69
2022-08-27T03:23:43.380Z,101636.13
2022-08-27T03:26:11.644Z,101630.81
2022-08-27T03:28:38.734Z,101641.97
2022-08-27T03:31:13.098Z,101645.13
2022-08-27T03:33:40.351Z,101649.22
2022-08-27T03:36:08.623Z,101648.41
2022-08-27T03:38:35.892Z,101646.56
2022-08-27T03:41:03.451Z,101648.13
2022-08-27T03:43:30.296Z,101647.28
2022-08-27T03:46:01.333Z,101661.56
2022-08-27T03:48:29.964Z,101657.94
2022-08-27T03:50:56.466Z,101659.28
2022-08-27T03:53:23.059Z,101652.94
2022-08-27T03:55:49.882Z,101664.22
2022-08-27T03:58:16.832Z,101655.97
2022-08-27T04:00:43.549Z,101647.53
2022-08-27T04:03:13.531Z,101649.31
2022-08-27T04:05:40.909Z,101649.00
2022-08-27T04:08:09.850Z,101643.03
2022-08-27T04:10:39.363Z,101649.84
2022-08-27T04:13:05.795Z,101658.34
2022-08-27T04:15:32.404Z,101661.16
2022-08-27T04:17:58.838Z,101662.19
2022-08-27T04:20:34.963Z,101666.47
2022-08-27T04:23:02.295Z,101661.88
2022-08-27T04:25:28.790Z,101668.03
2022-08-27T04:27:55.164Z,101661.88
2022-08-27T04:30:21.963Z,101665.38
2022-08-27T04:32:48.555Z,101659.88
2022-08-27T04:35:14.944Z,101660.06
2022-08-27T04:37:41.392Z,101661.41
2022-08-27T04:40:08.852Z,101658.56
2022-08-27T04:42:35.278Z,101671.84
2022-08-27T04:45:02.966Z,101657.19
2022-08-27T04:47:30.949Z,101664.59
2022-08-27T04:49:57.371Z,101656.16
2022-08-27T04:52:23.785Z,101660.00
2022-08-27T04:54:50.261Z,101670.44
2022-08-27T04:57:17.048Z,101668.78
2022-08-27T04:59:43.587Z,101669.81
2022-08-27T05:02:10.835Z,101667.31
2022-08-27T05:04:39.635Z,101667.66
2022-08-27T05:07:08.385Z,101673.69
2022-08-27T05:09:34.955Z,101675.03
2022-08-27T05:12:01.642Z,101681.88
2022-08-27T05:14:32.543Z,101676.44
2022-08-27T05:17:00.085Z,101683.91
2022-08-27T05:19:26.988Z,101688.56
2022-08-27T05:21:53.951Z,101685.59
2022-08-27T05:24:21.030Z,101692.22
2022-08-27T05:26:47.779Z,101685.78
2022-08-27T05:29:14.594Z,101687.28
2022-08-27T05:31:42.136Z,101689.94
2022-08-27T05:34:10.457Z,101691.28
2022-08-27T05:36:48.107Z,101686.50
2022-08-27T05:39:16.251Z,101691.16
2022-08-27T05:41:43.032Z,101675.41
2022-08-27T05:44:37.253Z,101681.22
2022-08-27T05:46:56.649Z,101684.50
2022-08-27T05:49:23.035Z,101682.88
2022-08-27T05:51:49.466Z,101682.19
2022-08-27T05:54:19.495Z,101682.16
2022-08-27T05:56:49.761Z,101684.16
2022-08-27T05:59:35.057Z,101680.69
2022-08-27T06:02:02.329Z,101686.91
2022-08-27T06:04:28.734Z,101681.78
2022-08-27T06:06:55.171Z,101679.66
2022-08-27T06:09:24.935Z,101685.28
2022-08-27T06:11:54.163Z,101683.91
2022-08-27T06:14:20.563Z,101687.09
2022-08-27T06:16:48.210Z,101686.09
2022-08-27T06:19:14.958Z,101680.78
2022-08-27T06:21:42.297Z,101693.22
2022-08-27T06:24:09.699Z,101695.19
2022-08-27T06:26:36.341Z,101694.53
2022-08-27T06:29:05.058Z,101692.38
2022-08-27T06:31:31.652Z,101698.50
2022-08-27T06:34:02.920Z,101694.97
2022-08-27T06:36:36.712Z,101690.66
2022-08-27T06:39:04.354Z,101690.78
2022-08-27T06:41:30.823Z,101700.72
2022-08-27T06:43:58.360Z,101699.84
2022-08-27T06:46:26.958Z,101696.47
2022-08-27T06:48:55.317Z,101691.47
2022-08-27T06:51:26.414Z,101693.59
2022-08-27T06:53:55.578Z,101692.78
2022-08-27T06:56:22.376Z,101689.09
2022-08-27T06:58:51.759Z,101688.50
2022-08-27T07:01:22.342Z,101685.13
2022-08-27T07:03:49.315Z,101691.56
2022-08-27T07:06:17.058Z,101696.81
2022-08-27T07:08:44.028Z,101695.19
2022-08-27T07:11:20.927Z,101691.44
2022-08-27T07:13:48.602Z,101689.91
2022-08-27T07:16:19.026Z,101697.88
2022-08-27T07:18:46.200Z,101696.41
2022-08-27T07:21:13.419Z,101687.72
2022-08-27T07:23:40.026Z,101693.81
2022-08-27T07:26:08.659Z,101685.63
2022-08-27T07:28:35.885Z,101689.28
2022-08-27T07:31:02.378Z,101687.91
2022-08-27T07:33:28.846Z,101693.84
2022-08-27T07:35:55.230Z,101696.66
2022-08-27T07:38:21.664Z,101699.75
2022-08-27T07:40:48.126Z,101694.06
2022-08-27T07:43:33.302Z,101698.84
2022-08-27T07:46:02.164Z,101694.38
2022-08-27T07:48:29.769Z,101703.81
2022-08-27T07:50:56.382Z,101706.94
2022-08-27T07:53:22.781Z,101702.91
2022-08-27T07:55:49.172Z,101704.19
2022-08-27T07:58:18.525Z,101700.44
2022-08-27T08:00:45.911Z,101707.50
2022-08-27T08:03:12.570Z,101712.34
2022-08-27T08:05:43.637Z,101719.81
2022-08-27T08:08:11.686Z,101711.44
2022-08-27T08:10:39.283Z,101712.72
2022-08-27T08:13:06.987Z,101707.47
2022-08-27T08:15:34.215Z,101710.78
2022-08-27T08:18:01.006Z,101715.75
2022-08-27T08:20:54.174Z,101709.78
2022-08-27T08:23:14.283Z,101704.94
2022-08-27T08:25:41.544Z,101706.16
2022-08-27T08:28:08.765Z,101710.84
2022-08-27T08:30:35.574Z,101712.56
2022-08-27T08:33:02.265Z,101703.06
2022-08-27T08:35:34.994Z,101714.47
2022-08-27T08:38:07.300Z,101714.56
2022-08-27T08:40:41.143Z,101717.78
2022-08-27T08:43:13.117Z,101719.66
2022-08-27T08:45:42.197Z,101716.13
2022-08-27T08:48:15.074Z,101722.38
2022-08-27T08:51:05.446Z,101723.75
2022-08-27T08:53:48.900Z,101716.13
2022-08-27T08:56:24.277Z,101721.28
2022-08-27T08:59:07.678Z,101721.66
2022-08-27T09:01:35.190Z,101721.88
2022-08-27T09:04:09.072Z,101719.84
2022-08-27T09:07:00.899Z,101725.59
2022-08-27T09:09:38.509Z,101719.66
2022-08-27T09:12:19.160Z,101722.03
2022-08-27T09:14:50.067Z,101719.19
2022-08-27T09:17:16.979Z,101720.03
2022-08-27T09:19:43.754Z,101724.31
2022-08-27T09:22:37.925Z,101731.72
2022-08-27T09:25:16.832Z,101735.03
2022-08-27T09:27:49.087Z,101729.69
2022-08-27T09:30:28.605Z,101737.91
2022-08-27T09:33:04.167Z,101732.75
2022-08-27T09:35:42.614Z,101732.97
2022-08-27T09:38:09.999Z,101731.13
2022-08-27T09:40:48.868Z,101732.13
2022-08-27T09:43:28.276Z,101727.44
2022-08-27T09:46:06.061Z,101736.50
2022-08-27T09:48:36.244Z,101722.31
2022-08-27T09:51:22.030Z,101716.25
2022-08-27T09:53:56.365Z,101719.25
2022-08-27T09:56:32.114Z,101720.16
2022-08-27T09:59:10.370Z,101723.44
2022-08-27T10:01:53.027Z,101718.63
2022-08-27T10:04:50.092Z,101710.91
2022-08-27T10:07:42.008Z,101718.63
2022-08-27T10:10:13.621Z,101710.63
2022-08-27T10:12:39.931Z,101705.84
2022-08-27T10:15:07.107Z,101711.53
2022-08-27T10:17:58.252Z,101710.56
2022-08-27T10:20:52.374Z,101704.31
2022-08-27T10:23:25.031Z,101713.31
2022-08-27T10:25:56.734Z,101707.81
2022-08-27T10:29:06.176Z,101715.66
2022-08-27T10:31:51.500Z,101710.38
2022-08-27T10:34:34.806Z,101714.50
2022-08-27T10:37:19.713Z,101719.47
2022-08-27T10:40:16.057Z,101720.44
2022-08-27T10:42:48.548Z,101714.13
2022-08-27T10:45:44.961Z,101718.44
2022-08-27T10:48:16.516Z,101711.56
2022-08-27T10:50:56.726Z,101715.69
2022-08-27T10:53:51.010Z,101717.53
2022-08-27T10:56:35.735Z,101704.22
2022-08-27T10:59:08.202Z,101709.72
2022-08-27T11:01:47.480Z,101706.19
2022-08-27T11:04:30.170Z,101707.63
2022-08-27T11:07:03.002Z,101711.69
2022-08-27T11:09:40.156Z,101706.94
2022-08-27T11:12:14.176Z,101704.38
2022-08-27T11:14:53.684Z,101705.63
2022-08-27T11:18:01.342Z,101699.84
2022-08-27T11:20:59.803Z,101700.28
2022-08-27T11:23:46.070Z,101703.28
2022-08-27T11:26:13.104Z,101701.25
2022-08-27T11:29:00.389Z,101707.28
2022-08-27T11:31:44.097Z,101700.97
2022-08-27T11:34:33.176Z,101698.50
2022-08-27T11:37:34.706Z,101697.69
2022-08-27T11:40:23.046Z,101694.34
2022-08-27T11:42:57.810Z,101696.66
2022-08-27T11:45:35.003Z,101694.06
2022-08-27T11:48:14.780Z,101690.91
2022-08-27T11:50:41.480Z,101690.25
2022-08-27T11:53:08.473Z,101693.66
2022-08-27T11:55:39.505Z,101690.44
2022-08-27T11:58:17.654Z,101685.66
2022-08-27T12:00:45.672Z,101686.47
2022-08-27T12:03:32.490Z,101685.41
2022-08-27T12:05:58.869Z,101688.91
2022-08-27T12:08:30.875Z,101683.91
2022-08-27T12:11:35.262Z,101692.94
2022-08-27T12:14:21.417Z,101697.84
2022-08-27T12:17:16.923Z,101696.97
2022-08-27T12:20:07.130Z,101692.84
2022-08-27T12:23:14.256Z,101693.78
2022-08-27T12:25:41.146Z,101702.75
2022-08-27T12:28:09.290Z,101703.41
2022-08-27T12:30:38.011Z,101696.00
2022-08-27T12:33:27.532Z,101689.34
2022-08-27T12:35:57.561Z,101693.38
2022-08-27T12:38:34.808Z,101691.06
2022-08-27T12:41:09.134Z,101688.69
2022-08-27T12:43:43.829Z,101690.25
2022-08-27T12:46:19.053Z,101681.28
2022-08-27T12:48:56.835Z,101688.66
2022-08-27T12:51:36.197Z,101681.41
2022-08-27T12:54:29.937Z,101681.66
2022-08-27T12:57:31.755Z,101690.00
2022-08-27T13:00:12.315Z,101680.28
2022-08-27T13:03:15.626Z,101678.00
2022-08-27T13:05:45.286Z,101679.25
2022-08-27T13:08:30.164Z,101685.47
2022-08-27T13:11:07.186Z,101687.31
2022-08-27T13:13:33.650Z,101685.97
2022-08-27T13:16:04.224Z,101678.25
2022-08-27T13:18:30.800Z,101678.88
2022-08-27T13:21:04.498Z,101675.53
2022-08-27T13:23:31.372Z,101683.59
2022-08-27T13:26:10.402Z,101674.09
2022-08-27T13:28:39.850Z,101679.31
2022-08-27T13:31:07.950Z,101688.41
2022-08-27T13:33:37.559Z,101682.22
2022-08-27T13:36:06.629Z,101673.88
2022-08-27T13:38:35.980Z,101685.53
2022-08-27T13:41:34.871Z,101679.78
2022-08-27T13:44:14.330Z,101676.03
2022-08-27T13:46:49.254Z,101679.94
2022-08-27T13:49:22.979Z,101680.75
2022-08-27T13:51:57.851Z,101670.81
2022-08-27T13:54:24.518Z,101671.28
2022-08-27T13:56:54.979Z,101676.97
2022-08-27T13:59:21.349Z,101670.28
2022-08-27T14:02:09.558Z,101678.88
2022-08-27T14:04:36.035Z,101674.03
2022-08-27T14:07:15.349Z,101667.91
2022-08-27T14:09:55.040Z,101665.06
2022-08-27T14:12:33.385Z,101661.78
2022-08-27T14:15:23.680Z,101668.59
2022-08-27T14:17:50.690Z,101665.06
2022-08-27T14:20:19.006Z,101672.47
2022-08-27T14:22:47.001Z,101673.28
2022-08-27T14:25:14.982Z,101674.50
2022-08-27T14:27:45.061Z,101676.38
2022-08-27T14:30:25.210Z,101675.53
2022-08-27T14:32:58.880Z,101669.19
2022-08-27T14:35:25.720Z,101665.44
2022-08-27T14:37:52.711Z,101663.81
2022-08-27T14:40:19.580Z,101670.66
2022-08-27T14:42:46.065Z,101673.66
2022-08-27T14:45:12.590Z,101670.66
2022-08-27T14:47:41.675Z,101670.75
2022-08-27T14:50:11.071Z,101669.94
2022-08-27T14:52:39.212Z,101665.13
2022-08-27T14:55:10.398Z,101668.72
2022-08-27T14:57:37.126Z,101672.16
2022-08-27T15:00:05.177Z,101674.47
2022-08-27T15:02:31.997Z,101672.69
2022-08-27T15:04:58.513Z,101673.78
2022-08-27T15:07:24.934Z,101672.53
2022-08-27T15:09:51.506Z,101675.66
2022-08-27T15:12:26.354Z,101678.56
2022-08-27T15:14:53.639Z,101681.25
2022-08-27T15:17:34.196Z,101679.09
2022-08-27T15:20:07.873Z,101672.19
2022-08-27T15:22:35.435Z,101682.44
2022-08-27T15:25:04.659Z,101686.63
2022-08-27T15:27:38.712Z,101685.66
2022-08-27T15:30:07.761Z,101688.16
2022-08-27T15:32:39.252Z,101683.91
2022-08-27T15:35:12.180Z,101688.44
2022-08-27T15:37:39.052Z,101688.94
2022-08-27T15:40:06.224Z,101688.72
2022-08-27T15:42:32.699Z,101692.47
2022-08-27T15:44:59.404Z,101685.06
2022-08-27T15:47:26.062Z,101691.03
2022-08-27T15:49:52.598Z,101685.53
2022-08-27T15:52:21.783Z,101685.53
2022-08-27T15:54:50.037Z,101679.56
2022-08-27T15:57:17.755Z,101687.16
2022-08-27T15:59:44.684Z,101685.78
2022-08-27T16:02:20.262Z,101688.03
2022-08-27T16:04:47.728Z,101684.44
2022-08-27T16:07:20.263Z,101684.59
2022-08-27T16:09:48.045Z,101678.69
2022-08-27T16:12:26.653Z,101677.03
2022-08-27T16:14:54.164Z,101688.44
2022-08-27T16:17:21.098Z,101691.53
2022-08-27T16:19:47.487Z,101679.56
2022-08-27T16:22:14.703Z,101671.97
2022-08-27T16:24:41.094Z,101691.19
2022-08-27T16:27:07.741Z,101679.00
2022-08-27T16:29:34.548Z,101686.91
2022-08-27T16:32:01.574Z,101678.88
2022-08-27T16:34:28.869Z,101681.81
2022-08-27T16:36:56.244Z,101679.81
2022-08-27T16:39:23.248Z,101679.81
2022-08-27T16:41:50.314Z,101681.00
2022-08-27T16:44:17.635Z,101673.84
2022-08-27T16:46:44.120Z,101682.47
2022-08-27T16:49:29.250Z,101676.94
2022-08-27T16:51:55.661Z,101683.78
2022-08-27T16:54:22.259Z,101680.50
2022-08-27T16:56:48.683Z,101686.13
2022-08-27T16:59:15.778Z,101683.66
2022-08-27T17:01:43.448Z,101677.72
2022-08-27T17:04:18.148Z,101678.34
2022-08-27T17:06:54.733Z,101677.50
2022-08-27T17:09:21.350Z,101675.47
2022-08-27T17:11:54.687Z,101679.16
2022-08-27T17:14:21.431Z,101681.84
2022-08-27T17:16:48.243Z,101681.22
2022-08-27T17:19:17.256Z,101680.22
2022-08-27T17:21:45.337Z,101676.94
2022-08-27T17:24:12.791Z,101688.13
2022-08-27T17:26:40.055Z,101678.44
2022-08-27T17:29:06.730Z,101686.69
2022-08-27T17:31:36.837Z,101683.16
2022-08-27T17:34:06.291Z,101691.59
2022-08-27T17:36:33.628Z,101689.38
2022-08-27T17:39:02.423Z,101685.25
2022-08-27T17:41:39.396Z,101686.09
2022-08-27T17:44:21.388Z,101685.03
2022-08-27T17:46:49.324Z,101689.81
2022-08-27T17:49:17.235Z,101685.91
2022-08-27T17:51:45.515Z,101685.94
2022-08-27T17:54:22.500Z,101687.63
2022-08-27T17:56:48.921Z,101688.25
2022-08-27T17:59:15.341Z,101693.63
2022-08-27T18:01:41.853Z,101697.53
2022-08-27T18:04:08.842Z,101690.53
2022-08-27T18:06:35.259Z,101700.00
2022-08-27T18:09:01.742Z,101697.78
2022-08-27T18:11:28.157Z,101709.72
2022-08-27T18:13:59.569Z,101706.84
2022-08-27T18:16:28.351Z,101714.47
2022-08-27T18:18:54.854Z,101715.09
2022-08-27T18:21:25.356Z,101723.72
2022-08-27T18:23:53.763Z,101726.19
2022-08-27T18:26:23.122Z,101722.47
2022-08-27T18:28:49.679Z,101741.63
2022-08-27T18:31:18.788Z,101737.69
2022-08-27T18:33:45.906Z,101736.91
2022-08-27T18:36:12.505Z,101744.06
2022-08-27T18:41:06.209Z,101751.84
2022-08-27T18:43:35.700Z,101753.91
2022-08-27T18:46:04.060Z,101766.03
2022-08-27T18:48:30.576Z,101764.97
2022-08-27T18:50:59.285Z,101776.28
2022-08-27T18:53:28.560Z,101778.69
2022-08-27T18:55:55.171Z,101774.56
2022-08-27T18:58:22.354Z,101765.94
2022-08-27T19:00:53.121Z,101771.66
2022-08-27T19:03:31.142Z,101769.41
2022-08-27T19:05:57.434Z,101775.56
2022-08-27T19:08:27.991Z,101778.81
2022-08-27T19:10:54.589Z,101780.66
2022-08-27T19:13:21.503Z,101784.75
2022-08-27T19:15:58.291Z,101778.41
2022-08-27T19:18:26.686Z,101789.66
2022-08-27T19:20:53.452Z,101793.13
2022-08-27T19:23:20.230Z,101790.81
2022-08-27T19:25:49.161Z,101793.66
2022-08-27T19:28:18.810Z,101796.69
2022-08-27T19:30:45.375Z,101807.09
2022-08-27T19:33:12.211Z,101803.44
2022-08-27T19:35:40.874Z,101800.50
2022-08-27T19:38:09.589Z,101805.78
2022-08-27T19:40:36.173Z,101807.53
2022-08-27T19:43:02.739Z,101809.13
2022-08-27T19:45:29.738Z,101810.34
2022-08-27T19:47:59.607Z,101803.75
2022-08-27T19:50:26.201Z,101803.66
2022-08-27T19:52:52.632Z,101819.88
2022-08-27T19:55:19.724Z,101822.28
2022-08-27T19:57:46.741Z,101819.38
2022-08-27T20:00:15.635Z,101826.09
2022-08-27T20:02:42.047Z,101823.75
2022-08-27T20:05:23.882Z,101819.75
2022-08-27T20:07:52.162Z,101824.06
2022-08-27T20:10:19.989Z,101821.34
2022-08-27T20:12:48.315Z,101827.25
2022-08-27T20:15:15.653Z,101825.75
2022-08-27T20:17:42.467Z,101825.31
2022-08-27T20:20:11.109Z,101829.25
2022-08-27T20:22:39.619Z,101823.84
2022-08-27T20:25:06.787Z,101828.28
2022-08-27T20:27:33.269Z,101817.53
2022-08-27T20:29:59.661Z,101822.97
2022-08-27T20:32:29.998Z,101828.22
2022-08-27T20:34:57.601Z,101825.91
2022-08-27T20:37:24.131Z,101829.69
2022-08-27T20:39:52.266Z,101820.16
2022-08-27T20:42:19.859Z,101837.47
2022-08-27T20:44:47.246Z,101828.31
2022-08-27T20:47:14.144Z,101837.84
2022-08-27T20:49:41.525Z,101835.09
2022-08-27T20:52:11.530Z,101841.25
2022-08-27T20:54:38.724Z,101849.09
2022-08-27T20:57:05.246Z,101852.47
2022-08-27T20:59:50.036Z,101857.16
2022-08-27T21:02:22.672Z,101858.34
2022-08-27T21:04:49.415Z,101847.97
2022-08-27T21:07:17.741Z,101856.75
2022-08-27T21:09:56.237Z,101861.16
2022-08-27T21:12:28.270Z,101860.78
2022-08-27T21:14:56.698Z,101855.19
2022-08-27T21:17:27.323Z,101865.38
2022-08-27T21:19:53.794Z,101862.41
2022-08-27T21:22:21.052Z,101871.09
2022-08-27T21:24:47.920Z,101873.84
2022-08-27T21:27:15.678Z,101866.19
2022-08-27T21:29:44.403Z,101862.06
2022-08-27T21:32:11.251Z,101860.78
2022-08-27T21:34:37.631Z,101867.78
2022-08-27T21:37:04.802Z,101859.00
2022-08-27T21:39:32.764Z,101867.31
2022-08-27T21:42:00.709Z,101875.16
2022-08-27T21:44:28.802Z,101858.56
2022-08-27T21:46:55.356Z,101871.22
2022-08-27T21:49:21.858Z,101870.91
2022-08-27T21:51:48.314Z,101871.75
2022-08-27T21:54:14.823Z,101875.25
2022-08-27T21:56:42.937Z,101885.69
2022-08-27T21:59:09.508Z,101880.72
2022-08-27T22:01:36.099Z,101878.25
2022-08-27T22:04:03.031Z,101879.09
2022-08-27T22:06:29.509Z,101887.59
2022-08-27T22:08:55.938Z,101886.47
2022-08-27T22:11:24.360Z,101884.50
2022-08-27T22:13:50.706Z,101891.94
2022-08-27T22:16:17.223Z,101894.47
2022-08-27T22:18:43.709Z,101889.16
2022-08-27T22:21:10.162Z,101882.84
2022-08-27T22:23:36.825Z,101890.97
2022-08-27T22:26:04.268Z,101886.84
2022-08-27T22:28:30.766Z,101890.69
2022-08-27T22:30:57.310Z,101879.06
2022-08-27T22:33:23.801Z,101887.03
2022-08-27T22:35:50.139Z,101882.25
2022-08-27T22:38:16.549Z,101886.88
2022-08-27T22:40:44.998Z,101889.88
2022-08-27T22:43:13.182Z,101885.59
2022-08-27T22:45:40.957Z,101893.88
2022-08-27T22:48:07.624Z,101895.22
2022-08-27T22:50:34.022Z,101891.09
2022-08-27T22:53:00.435Z,101897.06
2022-08-27T22:55:26.946Z,101896.09
2022-08-27T22:57:54.777Z,101892.78
2022-08-27T23:00:28.992Z,101895.59
2022-08-27T23:02:56.025Z,101909.38
2022-08-27T23:05:23.496Z,101905.72
2022-08-27T23:07:50.282Z,101906.09
2022-08-27T23:10:19.715Z,101907.22
2022-08-27T23:12:46.726Z,101907.88
2022-08-27T23:15:16.502Z,101913.03
2022-08-27T23:17:43.047Z,101911.19
2022-08-27T23:20:11.416Z,101911.56
2022-08-27T23:22:38.100Z,101909.56
2022-08-27T23:25:25.299Z,101907.03
2022-08-27T23:27:51.794Z,101910.19
2022-08-27T23:30:18.462Z,101910.19
2022-08-27T23:32:48.312Z,101904.72
2022-08-27T23:35:20.225Z,101900.25
2022-08-27T23:37:46.806Z,101906.22
2022-08-27T23:40:13.273Z,101906.72
2022-08-27T23:42:41.770Z,101909.38
2022-08-27T23:45:09.058Z,101906.88
2022-08-27T23:47:35.442Z,101911.03
2022-08-27T23:50:01.875Z,101904.25
2022-08-27T23:52:28.242Z,101912.34
2022-08-27T23:54:54.607Z,101905.06
2022-08-27T23:57:20.975Z,101909.69
2022-08-27T23:59:47.413Z,101910.53
